createdAt,value
2019-04-03T00:01:04.040Z,9.19
2019-04-03T00:03:34.162Z,9.22
2019-04-03T00:06:05.592Z,9.20
2019-04-03T00:08:36.650Z,9.17
2019-04-03T00:11:08.569Z,9.10
2019-04-03T00:13:37.629Z,9.00
2019-04-03T00:16:07.075Z,9.04
2019-04-03T00:18:36.488Z,8.95
2019-04-03T00:21:05.966Z,8.92
2019-04-03T00:23:35.429Z,8.94
2019-04-03T00:26:05.236Z,8.90
2019-04-03T00:28:34.648Z,8.88
2019-04-03T00:31:04.094Z,8.80
2019-04-03T00:33:33.503Z,8.80
2019-04-03T00:36:02.951Z,8.83
2019-04-03T00:38:32.366Z,8.78
2019-04-03T00:41:01.805Z,8.80
2019-04-03T00:43:31.263Z,8.78
2019-04-03T00:46:00.700Z,8.70
2019-04-03T00:48:30.116Z,8.70
2019-04-03T00:50:59.657Z,8.65
2019-04-03T00:53:29.072Z,8.62
2019-04-03T00:55:59.159Z,8.61
2019-04-03T00:58:41.444Z,8.58
2019-04-03T01:01:11.645Z,8.55
2019-04-03T01:03:41.402Z,8.50
2019-04-03T01:06:11.218Z,8.52
2019-04-03T01:08:40.624Z,8.51
2019-04-03T01:11:10.101Z,8.47
2019-04-03T01:13:40.012Z,8.41
2019-04-03T01:16:09.757Z,8.41
2019-04-03T01:18:39.186Z,8.41
2019-04-03T01:21:08.683Z,8.38
2019-04-03T01:23:38.240Z,8.35
2019-04-03T01:26:09.301Z,8.38
2019-04-03T01:28:41.355Z,8.34
2019-04-03T01:31:10.062Z,8.32
2019-04-03T01:33:39.533Z,8.28
2019-04-03T01:36:08.938Z,8.27
2019-04-03T01:38:38.884Z,8.22
2019-04-03T01:41:08.309Z,8.19
2019-04-03T01:43:38.216Z,8.17
2019-04-03T01:46:07.629Z,8.09
2019-04-03T01:48:37.065Z,8.11
2019-04-03T01:51:06.482Z,8.08
2019-04-03T01:53:35.920Z,8.08
2019-04-03T01:56:05.338Z,8.03
2019-04-03T01:58:36.522Z,8.03
2019-04-03T02:01:07.592Z,8.02
2019-04-03T02:03:37.174Z,7.98
2019-04-03T02:06:06.545Z,7.99
2019-04-03T02:08:35.994Z,7.99
2019-04-03T02:11:05.683Z,8.00
2019-04-03T02:13:35.230Z,7.95
2019-04-03T02:16:04.790Z,7.95
2019-04-03T02:18:34.184Z,7.97
2019-04-03T02:21:05.169Z,7.95
2019-04-03T02:23:34.641Z,7.96
2019-04-03T02:26:04.230Z,7.93
2019-04-03T02:28:34.916Z,7.93
2019-04-03T02:31:04.765Z,7.89
2019-04-03T02:33:34.213Z,7.85
2019-04-03T02:36:03.643Z,7.88
2019-04-03T02:38:33.156Z,7.83
2019-04-03T02:41:03.971Z,7.85
2019-04-03T02:43:34.173Z,7.83
2019-04-03T02:46:03.626Z,7.85
2019-04-03T02:48:37.351Z,7.78
2019-04-03T02:51:04.297Z,7.78
2019-04-03T02:53:33.761Z,7.74
2019-04-03T02:56:03.257Z,7.74
2019-04-03T02:58:32.695Z,7.73
2019-04-03T03:01:05.331Z,7.69
2019-04-03T03:03:33.599Z,7.69
2019-04-03T03:06:02.978Z,7.72
2019-04-03T03:08:32.431Z,7.73
2019-04-03T03:11:02.921Z,7.69
2019-04-03T03:13:34.614Z,7.64
2019-04-03T03:16:04.177Z,7.64
2019-04-03T03:18:33.629Z,7.56
2019-04-03T03:21:03.055Z,7.59
2019-04-03T03:23:32.530Z,7.56
2019-04-03T03:26:04.292Z,7.50
2019-04-03T03:28:33.074Z,7.53
2019-04-03T03:31:05.245Z,7.45
2019-04-03T03:33:37.449Z,7.47
2019-04-03T03:36:05.465Z,7.42
2019-04-03T03:38:38.203Z,7.35
2019-04-03T03:41:06.237Z,7.29
2019-04-03T03:43:38.215Z,7.18
2019-04-03T03:46:06.801Z,7.15
2019-04-03T03:48:36.387Z,7.07
2019-04-03T03:51:05.846Z,7.00
2019-04-03T03:53:35.560Z,6.95
2019-04-03T03:56:05.247Z,6.85
2019-04-03T03:58:34.744Z,6.88
2019-04-03T04:01:04.211Z,6.87
2019-04-03T04:03:33.606Z,6.88
2019-04-03T04:06:03.062Z,6.90
2019-04-03T04:08:32.787Z,6.91
2019-04-03T04:11:02.712Z,6.87
2019-04-03T04:13:32.480Z,6.83
2019-04-03T04:16:03.872Z,6.80
2019-04-03T04:18:33.182Z,6.77
2019-04-03T04:21:02.902Z,6.68
2019-04-03T04:23:32.320Z,6.61
2019-04-03T04:26:02.278Z,6.54
2019-04-03T04:28:31.877Z,6.55
2019-04-03T04:31:01.327Z,6.51
2019-04-03T04:33:30.845Z,6.47
2019-04-03T04:36:00.395Z,6.48
2019-04-03T04:38:29.815Z,6.49
2019-04-03T04:41:01.287Z,6.48
2019-04-03T04:43:30.486Z,6.43
2019-04-03T04:45:59.942Z,6.42
2019-04-03T04:48:29.365Z,6.36
2019-04-03T04:50:58.816Z,6.39
2019-04-03T04:53:29.835Z,6.38
2019-04-03T04:55:59.388Z,6.39
2019-04-03T04:58:28.800Z,6.47
2019-04-03T05:00:58.358Z,6.48
2019-04-03T05:03:27.886Z,6.48
2019-04-03T05:05:58.570Z,6.48
2019-04-03T05:08:33.637Z,6.54
2019-04-03T05:11:03.391Z,6.58
2019-04-03T05:13:32.823Z,6.59
2019-04-03T05:16:02.686Z,6.68
2019-04-03T05:18:32.256Z,6.76
2019-04-03T05:21:01.905Z,6.82
2019-04-03T05:23:31.339Z,6.86
2019-04-03T05:26:01.854Z,6.94
2019-04-03T05:28:33.986Z,7.03
2019-04-03T05:31:02.763Z,7.15
2019-04-03T05:33:32.184Z,7.26
2019-04-03T05:36:01.638Z,7.39
2019-04-03T05:38:31.061Z,7.52
2019-04-03T05:41:00.562Z,7.55
2019-04-03T05:43:30.854Z,7.62
2019-04-03T05:46:01.032Z,7.71
2019-04-03T05:48:30.655Z,7.80
2019-04-03T05:51:00.109Z,7.84
2019-04-03T05:53:29.538Z,7.94
2019-04-03T05:55:58.986Z,7.99
2019-04-03T05:58:28.494Z,8.07
2019-04-03T06:01:05.421Z,8.12
2019-04-03T06:03:39.173Z,8.24
2019-04-03T06:06:00.356Z,8.35
2019-04-03T06:08:29.778Z,8.40
2019-04-03T06:10:59.407Z,8.52
2019-04-03T06:13:28.834Z,8.72
2019-04-03T06:15:58.381Z,8.82
2019-04-03T06:18:30.913Z,8.92
2019-04-03T06:20:59.070Z,9.05
2019-04-03T06:23:28.694Z,9.12
2019-04-03T06:26:01.021Z,9.24
2019-04-03T06:28:29.255Z,9.28
2019-04-03T06:30:58.700Z,9.41
2019-04-03T06:33:31.305Z,9.48
2019-04-03T06:35:59.271Z,9.59
2019-04-03T06:38:29.051Z,9.62
2019-04-03T06:40:58.594Z,9.77
2019-04-03T06:43:29.942Z,9.90
2019-04-03T06:45:59.134Z,10.00
2019-04-03T06:48:28.565Z,10.06
2019-04-03T06:50:58.219Z,10.21
2019-04-03T06:53:28.758Z,10.32
2019-04-03T06:55:58.562Z,10.44
2019-04-03T06:58:37.266Z,10.48
2019-04-03T07:00:59.147Z,10.64
2019-04-03T07:03:28.610Z,10.81
2019-04-03T07:05:58.048Z,10.84
2019-04-03T07:08:32.598Z,10.94
2019-04-03T07:10:58.636Z,11.03
2019-04-03T07:13:29.734Z,11.12
2019-04-03T07:15:59.414Z,11.28
2019-04-03T07:18:29.169Z,11.45
2019-04-03T07:20:58.552Z,11.53
2019-04-03T07:23:29.918Z,11.63
2019-04-03T07:25:59.622Z,11.80
2019-04-03T07:28:30.596Z,11.91
2019-04-03T07:31:00.380Z,11.97
2019-04-03T07:33:29.847Z,12.10
2019-04-03T07:35:59.282Z,12.23
2019-04-03T07:38:28.929Z,12.18
2019-04-03T07:40:58.326Z,12.39
2019-04-03T07:43:28.231Z,12.41
2019-04-03T07:45:57.688Z,12.60
2019-04-03T07:48:27.323Z,12.80
2019-04-03T07:50:56.740Z,12.89
2019-04-03T07:53:26.190Z,13.06
2019-04-03T07:55:55.983Z,13.25
2019-04-03T07:58:25.825Z,13.46
2019-04-03T08:00:55.486Z,13.49
2019-04-03T08:03:24.900Z,13.49
2019-04-03T08:05:56.265Z,13.64
2019-04-03T08:08:25.768Z,13.81
2019-04-03T08:10:55.287Z,13.97
2019-04-03T08:13:24.743Z,14.12
2019-04-03T08:15:54.157Z,14.26
2019-04-03T08:18:23.608Z,14.34
2019-04-03T08:20:53.358Z,14.34
2019-04-03T08:23:22.852Z,14.53
2019-04-03T08:25:54.264Z,14.64
2019-04-03T08:28:26.012Z,14.70
2019-04-03T08:30:54.642Z,14.97
2019-04-03T08:33:27.332Z,15.12
2019-04-03T08:35:55.303Z,15.15
2019-04-03T08:38:24.983Z,15.41
2019-04-03T08:40:54.850Z,15.56
2019-04-03T08:43:24.459Z,15.84
2019-04-03T08:45:54.027Z,16.02
2019-04-03T08:48:23.523Z,16.21
2019-04-03T08:50:52.941Z,16.30
2019-04-03T08:53:22.389Z,16.20
2019-04-03T08:55:51.942Z,16.42
2019-04-03T08:58:22.135Z,16.65
2019-04-03T09:00:52.619Z,16.77
2019-04-03T09:03:22.037Z,16.90
2019-04-03T09:05:52.354Z,16.99
2019-04-03T09:08:22.814Z,17.05
2019-04-03T09:10:52.509Z,17.28
2019-04-03T09:13:23.242Z,17.27
2019-04-03T09:15:53.298Z,17.21
2019-04-03T09:18:22.817Z,17.29
2019-04-03T09:20:52.373Z,17.38
2019-04-03T09:23:24.634Z,17.74
2019-04-03T09:25:52.968Z,17.94
2019-04-03T09:28:22.862Z,18.27
2019-04-03T09:30:54.099Z,18.22
2019-04-03T09:33:25.527Z,18.14
2019-04-03T09:35:54.815Z,18.30
2019-04-03T09:38:24.239Z,18.31
2019-04-03T09:40:53.874Z,18.29
2019-04-03T09:43:23.291Z,18.26
2019-04-03T09:45:52.842Z,18.30
2019-04-03T09:48:22.950Z,18.36
2019-04-03T09:50:52.399Z,18.51
2019-04-03T09:53:21.830Z,18.62
2019-04-03T09:55:51.278Z,18.83
2019-04-03T09:58:20.702Z,18.86
2019-04-03T10:00:50.153Z,19.15
2019-04-03T10:03:22.486Z,19.03
2019-04-03T10:05:50.829Z,19.24
2019-04-03T10:08:20.211Z,19.34
2019-04-03T10:10:50.040Z,19.53
2019-04-03T10:13:19.562Z,19.56
2019-04-03T10:15:49.238Z,20.24
2019-04-03T10:18:22.001Z,20.43
2019-04-03T10:20:50.868Z,20.61
2019-04-03T10:23:20.303Z,20.90
2019-04-03T10:25:52.530Z,20.84
2019-04-03T10:28:21.115Z,20.75
2019-04-03T10:30:52.825Z,20.60
2019-04-03T10:33:21.635Z,20.40
2019-04-03T10:35:51.486Z,20.81
2019-04-03T10:38:20.898Z,21.03
2019-04-03T10:40:50.452Z,21.49
2019-04-03T10:43:19.917Z,21.88
2019-04-03T10:45:49.459Z,21.76
2019-04-03T10:48:19.103Z,22.22
2019-04-03T10:50:48.678Z,22.34
2019-04-03T10:53:20.031Z,22.37
2019-04-03T10:55:49.261Z,22.26
2019-04-03T10:58:18.900Z,22.18
2019-04-03T11:00:49.428Z,21.67
2019-04-03T11:03:20.620Z,21.18
2019-04-03T11:05:50.029Z,20.76
2019-04-03T11:08:19.483Z,20.84
2019-04-03T11:10:49.358Z,21.42
2019-04-03T11:13:19.137Z,21.64
2019-04-03T11:15:48.952Z,21.50
2019-04-03T11:18:18.882Z,21.20
2019-04-03T11:20:49.872Z,21.43
2019-04-03T11:23:21.630Z,21.67
2019-04-03T11:25:50.420Z,22.05
2019-04-03T11:28:19.935Z,22.24
2019-04-03T11:30:52.120Z,22.09
2019-04-03T11:33:20.518Z,21.75
2019-04-03T11:35:52.290Z,21.81
2019-04-03T11:38:27.189Z,22.19
2019-04-03T11:40:52.768Z,23.02
2019-04-03T11:43:22.266Z,23.08
2019-04-03T11:45:51.748Z,22.97
2019-04-03T11:48:21.274Z,22.34
2019-04-03T11:50:51.164Z,21.58
2019-04-03T11:53:20.617Z,21.66
2019-04-03T11:55:50.076Z,22.16
2019-04-03T11:58:21.106Z,22.49
2019-04-03T12:00:52.632Z,22.66
2019-04-03T12:03:22.154Z,22.83
2019-04-03T12:05:51.611Z,23.36
2019-04-03T12:08:21.183Z,23.97
2019-04-03T12:10:50.676Z,23.99
2019-04-03T12:13:21.805Z,23.96
2019-04-03T12:15:53.205Z,23.43
2019-04-03T12:18:26.200Z,22.57
2019-04-03T12:20:55.777Z,22.58
2019-04-03T12:23:26.911Z,22.36
2019-04-03T12:25:56.976Z,22.63
2019-04-03T12:28:26.455Z,22.77
2019-04-03T12:30:57.080Z,22.51
2019-04-03T12:33:26.897Z,23.08
2019-04-03T12:35:56.529Z,22.85
2019-04-03T12:38:26.173Z,22.73
2019-04-03T12:40:55.871Z,23.94
2019-04-03T12:43:25.321Z,24.34
2019-04-03T12:45:57.387Z,25.14
2019-04-03T12:48:27.894Z,24.86
2019-04-03T12:50:59.717Z,24.98
2019-04-03T12:53:28.460Z,24.05
2019-04-03T12:55:58.434Z,23.98
2019-04-03T12:58:28.203Z,24.48
2019-04-03T13:00:58.104Z,24.49
2019-04-03T13:03:27.883Z,24.46
2019-04-03T13:05:58.745Z,24.61
2019-04-03T13:08:28.357Z,24.79
2019-04-03T13:10:58.132Z,24.80
2019-04-03T13:13:28.827Z,24.60
2019-04-03T13:15:58.331Z,24.47
2019-04-03T13:18:27.918Z,24.20
2019-04-03T13:20:57.349Z,23.09
2019-04-03T13:23:26.832Z,23.36
2019-04-03T13:25:56.344Z,22.96
2019-04-03T13:28:25.929Z,22.84
2019-04-03T13:30:55.293Z,22.83
2019-04-03T13:33:24.846Z,22.41
2019-04-03T13:35:54.255Z,22.31
2019-04-03T13:38:23.915Z,21.91
2019-04-03T13:40:53.405Z,22.26
2019-04-03T13:43:22.858Z,22.43
2019-04-03T13:45:52.345Z,22.32
2019-04-03T13:48:21.832Z,23.04
2019-04-03T13:50:53.541Z,22.76
2019-04-03T13:53:25.086Z,23.53
2019-04-03T13:55:53.485Z,23.88
2019-04-03T13:58:23.321Z,24.46
2019-04-03T14:01:01.382Z,24.70
2019-04-03T14:03:24.671Z,24.02
2019-04-03T14:05:54.414Z,23.17
2019-04-03T14:08:23.901Z,23.02
2019-04-03T14:10:53.308Z,22.49
2019-04-03T14:13:22.846Z,22.37
2019-04-03T14:15:54.756Z,22.13
2019-04-03T14:18:23.789Z,21.67
2019-04-03T14:20:54.023Z,21.43
2019-04-03T14:23:24.797Z,21.47
2019-04-03T14:26:04.793Z,21.54
2019-04-03T14:28:25.548Z,21.58
2019-04-03T14:30:55.071Z,21.62
2019-04-03T14:33:25.544Z,21.39
2019-04-03T14:35:55.719Z,21.00
2019-04-03T14:38:27.630Z,21.31
2019-04-03T14:40:56.308Z,21.24
2019-04-03T14:43:25.715Z,21.37
2019-04-03T14:45:55.170Z,21.40
2019-04-03T14:48:26.194Z,21.38
2019-04-03T14:50:55.728Z,21.31
2019-04-03T14:53:25.837Z,21.08
2019-04-03T14:55:55.347Z,20.88
2019-04-03T14:58:26.851Z,20.96
2019-04-03T15:00:56.428Z,21.07
2019-04-03T15:03:27.820Z,21.35
2019-04-03T15:05:57.028Z,21.48
2019-04-03T15:08:26.456Z,21.42
2019-04-03T15:10:55.905Z,21.90
2019-04-03T15:13:25.438Z,21.94
2019-04-03T15:15:57.205Z,21.87
2019-04-03T15:18:26.420Z,21.39
2019-04-03T15:20:55.966Z,21.21
2019-04-03T15:23:25.384Z,20.86
2019-04-03T15:25:54.934Z,20.80
2019-04-03T15:28:24.452Z,20.65
2019-04-03T15:30:53.892Z,20.62
2019-04-03T15:33:24.759Z,20.52
2019-04-03T15:35:54.442Z,20.36
2019-04-03T15:38:23.861Z,20.25
2019-04-03T15:40:53.351Z,20.25
2019-04-03T15:43:22.732Z,20.13
2019-04-03T15:45:52.315Z,20.13
2019-04-03T15:48:22.853Z,19.98
2019-04-03T15:50:53.294Z,19.92
2019-04-03T15:53:24.219Z,19.91
2019-04-03T15:55:53.848Z,19.85
2019-04-03T15:58:25.694Z,19.84
2019-04-03T16:00:54.399Z,19.79
2019-04-03T16:03:24.019Z,19.64
2019-04-03T16:05:53.466Z,19.58
2019-04-03T16:08:23.313Z,19.53
2019-04-03T16:10:54.038Z,19.42
2019-04-03T16:13:24.308Z,19.37
2019-04-03T16:15:56.323Z,19.26
2019-04-03T16:18:25.086Z,19.15
2019-04-03T16:20:54.979Z,18.97
2019-04-03T16:23:24.432Z,18.92
2019-04-03T16:25:53.883Z,18.77
2019-04-03T16:28:23.329Z,18.65
2019-04-03T16:30:54.401Z,18.43
2019-04-03T16:33:24.901Z,18.30
2019-04-03T16:35:54.667Z,18.21
2019-04-03T16:38:27.677Z,18.16
2019-04-03T16:40:55.529Z,18.13
2019-04-03T16:43:25.034Z,18.01
2019-04-03T16:45:54.827Z,17.91
2019-04-03T16:48:24.484Z,17.77
2019-04-03T16:50:54.437Z,17.64
2019-04-03T16:53:23.908Z,17.60
2019-04-03T16:55:53.933Z,17.53
2019-04-03T16:58:25.255Z,17.48
2019-04-03T17:00:55.045Z,17.36
2019-04-03T17:03:26.634Z,17.17
2019-04-03T17:05:55.621Z,17.09
2019-04-03T17:08:25.975Z,16.98
2019-04-03T17:10:56.256Z,16.87
2019-04-03T17:13:25.679Z,16.82
2019-04-03T17:15:55.145Z,16.75
2019-04-03T17:18:24.552Z,16.73
2019-04-03T17:20:56.339Z,16.71
2019-04-03T17:23:25.595Z,16.63
2019-04-03T17:25:55.214Z,16.54
2019-04-03T17:28:26.423Z,16.52
2019-04-03T17:30:55.780Z,16.51
2019-04-03T17:33:25.222Z,16.39
2019-04-03T17:35:54.741Z,16.29
2019-04-03T17:38:24.190Z,16.23
2019-04-03T17:40:53.713Z,16.20
2019-04-03T17:43:23.164Z,16.13
2019-04-03T17:45:52.580Z,16.04
2019-04-03T17:48:22.842Z,15.99
2019-04-03T17:50:53.146Z,15.97
2019-04-03T17:53:22.661Z,15.88
2019-04-03T17:55:52.095Z,15.82
2019-04-03T17:58:21.654Z,15.75
2019-04-03T18:00:52.078Z,15.74
2019-04-03T18:03:21.998Z,15.67
2019-04-03T18:05:51.426Z,15.67
2019-04-03T18:08:21.150Z,15.62
2019-04-03T18:10:50.574Z,15.56
2019-04-03T18:13:20.022Z,15.51
2019-04-03T18:15:49.979Z,15.45
2019-04-03T18:18:19.698Z,15.45
2019-04-03T18:20:49.117Z,15.43
2019-04-03T18:23:21.402Z,15.42
2019-04-03T18:25:50.300Z,15.38
2019-04-03T18:28:21.035Z,15.28
2019-04-03T18:30:50.642Z,15.27
2019-04-03T18:33:20.109Z,15.19
2019-04-03T18:35:49.921Z,15.14
2019-04-03T18:38:19.364Z,15.08
2019-04-03T18:40:50.005Z,15.09
2019-04-03T18:43:21.645Z,15.05
2019-04-03T18:45:50.566Z,15.05
2019-04-03T18:48:20.109Z,15.07
2019-04-03T18:50:50.016Z,15.03
2019-04-03T18:53:19.461Z,14.96
2019-04-03T18:55:48.885Z,14.98
2019-04-03T18:58:18.325Z,14.99
2019-04-03T19:00:47.754Z,14.98
2019-04-03T19:03:17.455Z,14.96
2019-04-03T19:05:47.279Z,14.98
2019-04-03T19:08:18.214Z,14.91
2019-04-03T19:10:47.965Z,14.90
2019-04-03T19:13:17.493Z,14.86
2019-04-03T19:15:46.955Z,14.84
2019-04-03T19:18:19.835Z,14.80
2019-04-03T19:20:47.699Z,14.82
2019-04-03T19:23:17.340Z,14.76
2019-04-03T19:25:46.915Z,14.74
2019-04-03T19:28:16.482Z,14.73
2019-04-03T19:30:46.064Z,14.75
2019-04-03T19:33:16.007Z,14.71
2019-04-03T19:35:45.448Z,14.71
2019-04-03T19:38:15.010Z,14.64
2019-04-03T19:40:44.806Z,14.60
2019-04-03T19:43:15.403Z,14.55
2019-04-03T19:45:45.188Z,14.52
2019-04-03T19:48:14.658Z,14.49
2019-04-03T19:50:44.077Z,14.48
2019-04-03T19:53:14.117Z,14.44
2019-04-03T19:55:43.569Z,14.41
2019-04-03T19:58:13.130Z,14.34
2019-04-03T20:00:42.713Z,14.35
2019-04-03T20:03:14.213Z,14.28
2019-04-03T20:05:44.038Z,14.28
2019-04-03T20:08:13.577Z,14.24
2019-04-03T20:10:43.030Z,14.25
2019-04-03T20:13:12.450Z,14.18
2019-04-03T20:15:42.009Z,14.16
2019-04-03T20:18:11.531Z,14.14
2019-04-03T20:20:40.997Z,14.12
2019-04-03T20:23:11.218Z,14.11
2019-04-03T20:25:40.726Z,14.07
2019-04-03T20:28:10.401Z,14.04
2019-04-03T20:30:39.960Z,14.01
2019-04-03T20:33:11.398Z,13.93
2019-04-03T20:35:40.529Z,13.87
2019-04-03T20:38:09.960Z,13.85
2019-04-03T20:40:39.937Z,13.79
2019-04-03T20:43:11.828Z,13.82
2019-04-03T20:45:40.848Z,13.78
2019-04-03T20:48:10.366Z,13.78
2019-04-03T20:50:39.813Z,13.75
2019-04-03T20:53:09.333Z,13.71
2019-04-03T20:55:38.788Z,13.65
2019-04-03T20:58:08.410Z,13.62
2019-04-03T21:00:38.000Z,13.61
2019-04-03T21:03:07.516Z,13.58
2019-04-03T21:05:36.969Z,13.53
2019-04-03T21:08:06.397Z,13.53
2019-04-03T21:10:35.846Z,13.50
2019-04-03T21:13:06.820Z,13.50
2019-04-03T21:15:36.414Z,13.45
2019-04-03T21:18:05.829Z,13.45
2019-04-03T21:20:35.501Z,13.43
2019-04-03T21:23:04.923Z,13.38
2019-04-03T21:25:35.948Z,13.40
2019-04-03T21:28:06.014Z,13.32
2019-04-03T21:30:35.458Z,13.31
2019-04-03T21:33:04.876Z,13.30
2019-04-03T21:35:35.153Z,13.27
2019-04-03T21:38:05.278Z,13.20
2019-04-03T21:40:34.742Z,13.19
2019-04-03T21:43:04.169Z,13.11
2019-04-03T21:45:33.613Z,13.08
2019-04-03T21:48:03.029Z,13.01
2019-04-03T21:50:32.487Z,13.03
2019-04-03T21:53:02.000Z,13.02
2019-04-03T21:55:34.444Z,12.98
2019-04-03T21:58:02.753Z,12.97
2019-04-03T22:01:00.685Z,12.94
2019-04-03T22:03:30.209Z,12.92
2019-04-03T22:05:59.667Z,12.84
2019-04-03T22:08:29.548Z,12.82
2019-04-03T22:10:59.286Z,12.77
2019-04-03T22:13:46.604Z,12.76
2019-04-03T22:16:16.338Z,12.73
2019-04-03T22:18:45.760Z,12.71
2019-04-03T22:21:15.307Z,12.72
2019-04-03T22:23:44.826Z,12.67
2019-04-03T22:26:14.487Z,12.61
2019-04-03T22:28:45.891Z,12.56
2019-04-03T22:31:15.080Z,12.48
2019-04-03T22:33:44.504Z,12.46
2019-04-03T22:36:13.948Z,12.40
2019-04-03T22:38:43.372Z,12.35
2019-04-03T22:41:12.928Z,12.39
2019-04-03T22:43:44.146Z,12.34
2019-04-03T22:46:13.876Z,12.30
2019-04-03T22:48:43.300Z,12.28
2019-04-03T22:51:12.849Z,12.26
2019-04-03T22:53:42.369Z,12.18
2019-04-03T22:56:11.821Z,12.19
2019-04-03T22:58:41.349Z,12.17
2019-04-03T23:01:10.796Z,12.11
2019-04-03T23:03:40.319Z,12.11
2019-04-03T23:06:09.862Z,12.04
2019-04-03T23:08:39.378Z,12.03
2019-04-03T23:11:08.919Z,11.92
2019-04-03T23:13:38.536Z,11.89
2019-04-03T23:16:09.633Z,11.84
2019-04-03T23:18:39.325Z,11.85
2019-04-03T23:21:08.844Z,11.80
2019-04-03T23:23:38.388Z,11.80
2019-04-03T23:26:07.834Z,11.75
2019-04-03T23:28:37.452Z,11.69
2019-04-03T23:31:06.866Z,11.70
2019-04-03T23:33:36.423Z,11.65
2019-04-03T23:36:05.941Z,11.67
2019-04-03T23:38:35.403Z,11.66
2019-04-03T23:41:06.129Z,11.66
2019-04-03T23:43:39.358Z,11.66
2019-04-03T23:46:07.512Z,11.64
2019-04-03T23:48:36.955Z,11.64
2019-04-03T23:51:06.469Z,11.61
2019-04-03T23:53:35.916Z,11.60
2019-04-03T23:56:05.519Z,11.56
2019-04-03T23:58:36.576Z,11.53
